PWSweather.com
Personal Weather Stations
Station Observations
KFLCAPE1
Cape Harbour, Cape Coral, FL 33914

Cape HarbourCape Coral, FL 33914

Lat: 26.55, Lon: -82.01

Elevation: 13

Station Type: Davis Vantage Pro2

http://www.capeweather.com

Latest ConditionsUpdated 6:30:42 PM EDT Thursday, Jul 20, 2017
Currently Today's Max Today's Min Today's Average
Temperature 90.1°F32.3°C 91.0°F32.8°C 77.6°F25.3°C 83.0°F28.3°C
Dew Point 76.3°F24.6°C 80.2°F26.8°C 75.4°F24.1°C 76.9°F24.9°C
Winds 3.0 mph NW4.8 kmh NW 11.0 mph WSW17.7 kmh WSW - 1.2 mph 1.9 kmh
Wind Gusts 5.0 mph8.0 kmh 12.0 mph19.3 kmh - -
Humidity 64% 96% 64% 83%
Pressure 30.00 in1015.9 mb 30.10 in1019.3 mb 30.00 in1015.9 mb -
Hour Temp Dew Point Humidity Winds Wind Gusts Pressure Precip Precip Rate Daily Precip Total
06:30 PM 90.1°F32.3°C 76.3°F24.6°C 64% 3.0 mph NW4.8 kmh NW 5.0 mph8.0 kmh 30.00 in1015.9 mb 0.00 in0.0 mm 0.00 in0.0 mm 0.13 in3.3 mm
06:25 PM 90.0°F32.2°C 76.2°F24.6°C 64% 4.0 mph SW6.4 kmh SW 5.0 mph8.0 kmh 30.00 in1015.9 mb 0.00 in0.0 mm 0.00 in0.0 mm 0.13 in3.3 mm
06:20 PM 90.0°F32.2°C 76.2°F24.6°C 64% 3.0 mph W4.8 kmh W 5.0 mph8.0 kmh 30.00 in1015.9 mb 0.00 in0.0 mm 0.00 in0.0 mm 0.13 in3.3 mm
06:15 PM 89.8°F32.1°C 77.4°F25.2°C 67% 4.0 mph SW6.4 kmh SW 5.0 mph8.0 kmh 30.00 in1015.9 mb 0.00 in0.0 mm 0.00 in0.0 mm 0.13 in3.3 mm
06:10 PM 89.7°F32.1°C 76.4°F24.7°C 65% Calm Calm 3.0 mph4.8 kmh 30.00 in1015.9 mb 0.00 in0.0 mm 0.00 in0.0 mm 0.13 in3.3 mm
06:05 PM 89.6°F32.0°C 75.8°F24.3°C 64% 1.0 mph NW1.6 kmh NW 1.0 mph1.6 kmh 30.00 in1015.9 mb 0.00 in0.0 mm 0.00 in0.0 mm 0.13 in3.3 mm
06:00 PM 89.5°F31.9°C 76.2°F24.6°C 65% 5.0 mph W8.0 kmh W 5.0 mph8.0 kmh 30.00 in1015.9 mb 0.00 in0.0 mm 0.00 in0.0 mm 0.13 in3.3 mm
05:55 PM 89.5°F31.9°C 75.7°F24.3°C 64% 3.0 mph WNW4.8 kmh WNW 5.0 mph8.0 kmh 30.00 in1015.9 mb 0.00 in0.0 mm 0.00 in0.0 mm 0.13 in3.3 mm
05:50 PM 89.6°F32.0°C 75.8°F24.3°C 64% 5.0 mph SW8.0 kmh SW 6.0 mph9.7 kmh 30.00 in1015.9 mb 0.00 in0.0 mm 0.00 in0.0 mm 0.13 in3.3 mm
05:45 PM 89.7°F32.1°C 76.8°F24.9°C 66% 6.0 mph WSW9.7 kmh WSW 7.0 mph11.3 kmh 30.00 in1015.9 mb 0.00 in0.0 mm 0.00 in0.0 mm 0.13 in3.3 mm
05:40 PM 89.6°F32.0°C 76.7°F24.8°C 66% 2.0 mph WSW3.2 kmh WSW 3.0 mph4.8 kmh 30.00 in1015.9 mb 0.00 in0.0 mm 0.00 in0.0 mm 0.13 in3.3 mm
05:35 PM 89.3°F31.8°C 76.9°F24.9°C 67% 3.0 mph WSW4.8 kmh WSW 4.0 mph6.4 kmh 30.00 in1015.9 mb 0.00 in0.0 mm 0.00 in0.0 mm 0.13 in3.3 mm
05:30 PM 89.3°F31.8°C 77.4°F25.2°C 68% 5.0 mph WSW8.0 kmh WSW 7.0 mph11.3 kmh 30.00 in1015.9 mb 0.00 in0.0 mm 0.00 in0.0 mm 0.13 in3.3 mm
05:25 PM 89.3°F31.8°C 76.9°F24.9°C 67% 6.0 mph SW9.7 kmh SW 6.0 mph9.7 kmh 30.00 in1015.9 mb 0.00 in0.0 mm 0.00 in0.0 mm 0.13 in3.3 mm
05:20 PM 89.5°F31.9°C 77.1°F25.1°C 67% 5.0 mph W8.0 kmh W 8.0 mph12.9 kmh 30.00 in1015.9 mb 0.00 in0.0 mm 0.00 in0.0 mm 0.13 in3.3 mm
05:15 PM 89.7°F32.1°C 76.8°F24.9°C 66% 6.0 mph SW9.7 kmh SW 6.0 mph9.7 kmh 30.01 in1016.3 mb 0.00 in0.0 mm 0.00 in0.0 mm 0.13 in3.3 mm
05:10 PM 89.7°F32.1°C 76.8°F24.9°C 66% 5.0 mph WSW8.0 kmh WSW 6.0 mph9.7 kmh 30.01 in1016.3 mb 0.00 in0.0 mm 0.00 in0.0 mm 0.13 in3.3 mm
05:05 PM 89.5°F31.9°C 76.7°F24.8°C 66% 4.0 mph W6.4 kmh W 5.0 mph8.0 kmh 30.01 in1016.3 mb 0.00 in0.0 mm 0.00 in0.0 mm 0.13 in3.3 mm
05:00 PM 89.3°F31.8°C 76.9°F24.9°C 67% 4.0 mph NW6.4 kmh NW 5.0 mph8.0 kmh 30.01 in1016.3 mb 0.00 in0.0 mm 0.00 in0.0 mm 0.13 in3.3 mm
04:55 PM 89.4°F31.9°C 77.0°F25.0°C 67% 4.0 mph SW6.4 kmh SW 6.0 mph9.7 kmh 30.01 in1016.3 mb 0.00 in0.0 mm 0.00 in0.0 mm 0.13 in3.3 mm
04:50 PM 89.7°F32.1°C 77.7°F25.4°C 68% 6.0 mph WSW9.7 kmh WSW 7.0 mph11.3 kmh 30.02 in1016.6 mb 0.00 in0.0 mm 0.00 in0.0 mm 0.13 in3.3 mm
04:45 PM 89.7°F32.1°C 78.2°F25.7°C 69% 1.0 mph WNW1.6 kmh WNW 3.0 mph4.8 kmh 30.02 in1016.6 mb 0.00 in0.0 mm 0.00 in0.0 mm 0.13 in3.3 mm
04:40 PM 89.8°F32.1°C 77.4°F25.2°C 67% 1.0 mph WNW1.6 kmh WNW 3.0 mph4.8 kmh 30.02 in1016.6 mb 0.00 in0.0 mm 0.00 in0.0 mm 0.13 in3.3 mm
04:35 PM 89.8°F32.1°C 78.3°F25.7°C 69% 5.0 mph WNW8.0 kmh WNW 7.0 mph11.3 kmh 30.03 in1016.9 mb 0.00 in0.0 mm 0.00 in0.0 mm 0.13 in3.3 mm
04:30 PM 89.7°F32.1°C 78.2°F25.7°C 69% Calm Calm -- 30.03 in1016.9 mb 0.00 in0.0 mm 0.00 in0.0 mm 0.13 in3.3 mm
04:25 PM 89.7°F32.1°C 77.7°F25.4°C 68% 5.0 mph WSW8.0 kmh WSW 6.0 mph9.7 kmh 30.02 in1016.6 mb 0.00 in0.0 mm 0.00 in0.0 mm 0.13 in3.3 mm
04:20 PM 89.6°F32.0°C 79.0°F26.1°C 71% 3.0 mph SW4.8 kmh SW 3.0 mph4.8 kmh 30.03 in1016.9 mb 0.00 in0.0 mm 0.00 in0.0 mm 0.13 in3.3 mm
04:15 PM 89.4°F31.9°C 77.5°F25.3°C 68% 4.0 mph W6.4 kmh W 6.0 mph9.7 kmh 30.03 in1016.9 mb 0.00 in0.0 mm 0.00 in0.0 mm 0.13 in3.3 mm
04:10 PM 89.2°F31.8°C 77.7°F25.4°C 69% 1.0 mph SSW1.6 kmh SSW 5.0 mph8.0 kmh 30.03 in1016.9 mb 0.00 in0.0 mm 0.00 in0.0 mm 0.13 in3.3 mm
04:05 PM 88.9°F31.6°C 77.4°F25.2°C 69% 7.0 mph WSW11.3 kmh WSW 9.0 mph14.5 kmh 30.03 in1016.9 mb 0.00 in0.0 mm 0.00 in0.0 mm 0.13 in3.3 mm
04:00 PM 88.8°F31.6°C 77.3°F25.2°C 69% 4.0 mph WSW6.4 kmh WSW 6.0 mph9.7 kmh 30.03 in1016.9 mb 0.00 in0.0 mm 0.00 in0.0 mm 0.13 in3.3 mm
03:55 PM 88.8°F31.6°C 77.8°F25.4°C 70% 4.0 mph SW6.4 kmh SW 5.0 mph8.0 kmh 30.03 in1016.9 mb 0.00 in0.0 mm 0.00 in0.0 mm 0.13 in3.3 mm
03:50 PM 88.8°F31.6°C 77.8°F25.4°C 70% 4.0 mph WSW6.4 kmh WSW 4.0 mph6.4 kmh 30.04 in1017.3 mb 0.00 in0.0 mm 0.00 in0.0 mm 0.13 in3.3 mm
03:45 PM 88.9°F31.6°C 77.4°F25.2°C 69% 5.0 mph WSW8.0 kmh WSW 6.0 mph9.7 kmh 30.04 in1017.3 mb 0.00 in0.0 mm 0.00 in0.0 mm 0.13 in3.3 mm
03:40 PM 89.1°F31.7°C 77.6°F25.3°C 69% 11.0 mph WSW17.7 kmh WSW 12.0 mph19.3 kmh 30.04 in1017.3 mb 0.00 in0.0 mm 0.00 in0.0 mm 0.13 in3.3 mm
03:35 PM 89.4°F31.9°C 77.5°F25.3°C 68% 3.0 mph WNW4.8 kmh WNW 6.0 mph9.7 kmh 30.04 in1017.3 mb 0.00 in0.0 mm 0.00 in0.0 mm 0.13 in3.3 mm
03:30 PM 89.5°F31.9°C 77.6°F25.3°C 68% 8.0 mph WNW12.9 kmh WNW 9.0 mph14.5 kmh 30.04 in1017.3 mb 0.00 in0.0 mm 0.00 in0.0 mm 0.13 in3.3 mm
03:25 PM 89.6°F32.0°C 76.3°F24.6°C 65% 3.0 mph W4.8 kmh W 4.0 mph6.4 kmh 30.05 in1017.6 mb 0.00 in0.0 mm 0.00 in0.0 mm 0.13 in3.3 mm
03:20 PM 89.7°F32.1°C 77.7°F25.4°C 68% 3.0 mph SSW4.8 kmh SSW 4.0 mph6.4 kmh 30.05 in1017.6 mb 0.00 in0.0 mm 0.00 in0.0 mm 0.13 in3.3 mm
03:15 PM 89.7°F32.1°C 77.7°F25.4°C 68% 7.0 mph SW11.3 kmh SW 8.0 mph12.9 kmh 30.05 in1017.6 mb 0.00 in0.0 mm 0.00 in0.0 mm 0.13 in3.3 mm
03:10 PM 89.6°F32.0°C 76.7°F24.8°C 66% 1.0 mph SSW1.6 kmh SSW 4.0 mph6.4 kmh 30.05 in1017.6 mb 0.00 in0.0 mm 0.00 in0.0 mm 0.13 in3.3 mm
03:05 PM 89.9°F32.2°C 78.8°F26.0°C 70% 5.0 mph SW8.0 kmh SW 6.0 mph9.7 kmh 30.05 in1017.6 mb 0.00 in0.0 mm 0.00 in0.0 mm 0.13 in3.3 mm
03:00 PM 90.3°F32.4°C 77.9°F25.5°C 67% Calm Calm 4.0 mph6.4 kmh 30.05 in1017.6 mb 0.00 in0.0 mm 0.00 in0.0 mm 0.13 in3.3 mm
02:55 PM 90.6°F32.6°C 78.1°F25.6°C 67% Calm Calm 4.0 mph6.4 kmh 30.05 in1017.6 mb 0.00 in0.0 mm 0.00 in0.0 mm 0.13 in3.3 mm
02:50 PM 91.0°F32.8°C 78.5°F25.8°C 67% 4.0 mph SSW6.4 kmh SSW 8.0 mph12.9 kmh 30.05 in1017.6 mb 0.00 in0.0 mm 0.00 in0.0 mm 0.13 in3.3 mm
02:45 PM 91.0°F32.8°C 79.9°F26.6°C 70% 3.0 mph SSE4.8 kmh SSE 3.0 mph4.8 kmh 30.05 in1017.6 mb 0.00 in0.0 mm 0.00 in0.0 mm 0.13 in3.3 mm
02:40 PM 90.7°F32.6°C 80.0°F26.7°C 71% Calm Calm -- 30.05 in1017.6 mb 0.00 in0.0 mm 0.00 in0.0 mm 0.13 in3.3 mm
02:35 PM 90.5°F32.5°C 79.8°F26.6°C 71% 3.0 mph S4.8 kmh S 6.0 mph9.7 kmh 30.06 in1017.9 mb 0.00 in0.0 mm 0.00 in0.0 mm 0.13 in3.3 mm
02:30 PM 90.2°F32.3°C 79.5°F26.4°C 71% 1.0 mph SSE1.6 kmh SSE 2.0 mph3.2 kmh 30.06 in1017.9 mb 0.00 in0.0 mm 0.00 in0.0 mm 0.13 in3.3 mm
02:25 PM 90.3°F32.4°C 78.8°F26.0°C 69% 2.0 mph S3.2 kmh S 8.0 mph12.9 kmh 30.07 in1018.3 mb 0.00 in0.0 mm 0.00 in0.0 mm 0.13 in3.3 mm
02:21 PM 90.3°F32.4°C 79.2°F26.2°C 70% 2.0 mph SW3.2 kmh SW 9.0 mph14.5 kmh 30.07 in1018.3 mb 0.00 in0.0 mm 0.00 in0.0 mm 0.13 in3.3 mm
02:15 PM 89.9°F32.2°C 78.8°F26.0°C 70% 1.0 mph SSE1.6 kmh SSE 3.0 mph4.8 kmh 30.07 in1018.3 mb 0.00 in0.0 mm 0.00 in0.0 mm 0.13 in3.3 mm
02:10 PM 89.7°F32.1°C 79.1°F26.2°C 71% 2.0 mph S3.2 kmh S 3.0 mph4.8 kmh 30.07 in1018.3 mb 0.00 in0.0 mm 0.00 in0.0 mm 0.13 in3.3 mm
02:05 PM 89.8°F32.1°C 79.1°F26.2°C 71% 3.0 mph S4.8 kmh S 5.0 mph8.0 kmh 30.07 in1018.3 mb 0.00 in0.0 mm 0.00 in0.0 mm 0.13 in3.3 mm
02:00 PM 90.0°F32.2°C 79.3°F26.3°C 71% 7.0 mph SSE11.3 kmh SSE 7.0 mph11.3 kmh 30.06 in1017.9 mb 0.00 in0.0 mm 0.00 in0.0 mm 0.13 in3.3 mm
01:55 PM 90.1°F32.3°C 79.4°F26.3°C 71% 2.0 mph S3.2 kmh S 3.0 mph4.8 kmh 30.06 in1017.9 mb 0.00 in0.0 mm 0.00 in0.0 mm 0.13 in3.3 mm
01:50 PM 90.0°F32.2°C 80.2°F26.8°C 73% 5.0 mph SW8.0 kmh SW 5.0 mph8.0 kmh 30.06 in1017.9 mb 0.00 in0.0 mm 0.00 in0.0 mm 0.13 in3.3 mm
01:45 PM 89.7°F32.1°C 79.5°F26.4°C 72% 2.0 mph SSE3.2 kmh SSE 5.0 mph8.0 kmh 30.06 in1017.9 mb 0.00 in0.0 mm 0.00 in0.0 mm 0.13 in3.3 mm
01:40 PM 89.9°F32.2°C 78.8°F26.0°C 70% 6.0 mph S9.7 kmh S 6.0 mph9.7 kmh 30.06 in1017.9 mb 0.00 in0.0 mm 0.00 in0.0 mm 0.13 in3.3 mm
01:35 PM 89.8°F32.1°C 79.6°F26.4°C 72% Calm Calm 1.0 mph1.6 kmh 30.06 in1017.9 mb 0.00 in0.0 mm 0.00 in0.0 mm 0.13 in3.3 mm
01:30 PM 89.7°F32.1°C 79.9°F26.6°C 73% 4.0 mph SSW6.4 kmh SSW 7.0 mph11.3 kmh 30.06 in1017.9 mb 0.00 in0.0 mm 0.00 in0.0 mm 0.13 in3.3 mm
01:25 PM 88.9°F31.6°C 79.1°F26.2°C 73% 1.0 mph SSE1.6 kmh SSE 1.0 mph1.6 kmh 30.07 in1018.3 mb 0.00 in0.0 mm 0.00 in0.0 mm 0.13 in3.3 mm
01:20 PM 88.5°F31.4°C 78.3°F25.7°C 72% 1.0 mph SSE1.6 kmh SSE 2.0 mph3.2 kmh 30.07 in1018.3 mb 0.00 in0.0 mm 0.00 in0.0 mm 0.13 in3.3 mm
01:15 PM 88.4°F31.3°C 78.2°F25.7°C 72% 2.0 mph SSW3.2 kmh SSW 3.0 mph4.8 kmh 30.07 in1018.3 mb 0.00 in0.0 mm 0.00 in0.0 mm 0.13 in3.3 mm
01:10 PM 88.1°F31.2°C 77.9°F25.5°C 72% 1.0 mph SSW1.6 kmh SSW 1.0 mph1.6 kmh 30.08 in1018.6 mb 0.00 in0.0 mm 0.00 in0.0 mm 0.13 in3.3 mm
01:05 PM 87.7°F30.9°C 78.0°F25.6°C 73% 2.0 mph SSW3.2 kmh SSW 2.0 mph3.2 kmh 30.08 in1018.6 mb 0.00 in0.0 mm 0.00 in0.0 mm 0.13 in3.3 mm
01:00 PM 87.4°F30.8°C 77.3°F25.2°C 72% Calm Calm 1.0 mph1.6 kmh 30.08 in1018.6 mb 0.00 in0.0 mm 0.00 in0.0 mm 0.13 in3.3 mm
12:55 PM 87.2°F30.7°C 77.1°F25.1°C 72% Calm Calm 5.0 mph8.0 kmh 30.08 in1018.6 mb 0.00 in0.0 mm 0.00 in0.0 mm 0.13 in3.3 mm
12:50 PM 87.2°F30.7°C 76.2°F24.6°C 70% Calm Calm 4.0 mph6.4 kmh 30.08 in1018.6 mb 0.00 in0.0 mm 0.00 in0.0 mm 0.13 in3.3 mm
12:45 PM 87.4°F30.8°C 77.3°F25.2°C 72% 1.0 mph S1.6 kmh S 2.0 mph3.2 kmh 30.08 in1018.6 mb 0.00 in0.0 mm 0.00 in0.0 mm 0.13 in3.3 mm
12:40 PM 87.4°F30.8°C 77.3°F25.2°C 72% 2.0 mph SW3.2 kmh SW 3.0 mph4.8 kmh 30.09 in1019.0 mb 0.00 in0.0 mm 0.00 in0.0 mm 0.13 in3.3 mm
12:35 PM 87.5°F30.8°C 76.9°F24.9°C 71% Calm Calm 2.0 mph3.2 kmh 30.09 in1019.0 mb 0.00 in0.0 mm 0.00 in0.0 mm 0.13 in3.3 mm
12:30 PM 87.4°F30.8°C 78.1°F25.6°C 74% 1.0 mph S1.6 kmh S 2.0 mph3.2 kmh 30.08 in1018.6 mb 0.00 in0.0 mm 0.00 in0.0 mm 0.13 in3.3 mm
12:25 PM 87.4°F30.8°C 77.7°F25.4°C 73% 4.0 mph S6.4 kmh S 5.0 mph8.0 kmh 30.08 in1018.6 mb 0.00 in0.0 mm 0.00 in0.0 mm 0.13 in3.3 mm
12:20 PM 87.0°F30.6°C 78.5°F25.8°C 76% 2.0 mph S3.2 kmh S 3.0 mph4.8 kmh 30.08 in1018.6 mb 0.00 in0.0 mm 0.00 in0.0 mm 0.13 in3.3 mm
12:15 PM 86.8°F30.4°C 79.1°F26.2°C 78% 2.0 mph S3.2 kmh S 4.0 mph6.4 kmh 30.08 in1018.6 mb 0.00 in0.0 mm 0.00 in0.0 mm 0.13 in3.3 mm
12:10 PM 86.5°F30.3°C 78.4°F25.8°C 77% 2.0 mph S3.2 kmh S 3.0 mph4.8 kmh 30.08 in1018.6 mb 0.00 in0.0 mm 0.00 in0.0 mm 0.13 in3.3 mm
12:05 PM 86.2°F30.1°C 78.9°F26.1°C 79% 3.0 mph S4.8 kmh S 5.0 mph8.0 kmh 30.08 in1018.6 mb 0.00 in0.0 mm 0.00 in0.0 mm 0.13 in3.3 mm
12:00 PM 85.8°F29.9°C 78.2°F25.7°C 78% 4.0 mph S6.4 kmh S 4.0 mph6.4 kmh 30.08 in1018.6 mb 0.00 in0.0 mm 0.00 in0.0 mm 0.13 in3.3 mm
11:55 AM 85.4°F29.7°C 78.2°F25.7°C 79% Calm Calm 4.0 mph6.4 kmh 30.09 in1019.0 mb 0.00 in0.0 mm 0.00 in0.0 mm 0.13 in3.3 mm
11:50 AM 85.4°F29.7°C 78.2°F25.7°C 79% Calm Calm 3.0 mph4.8 kmh 30.09 in1019.0 mb 0.00 in0.0 mm 0.00 in0.0 mm 0.13 in3.3 mm
11:45 AM 85.4°F29.7°C 77.4°F25.2°C 77% 1.0 mph S1.6 kmh S 3.0 mph4.8 kmh 30.09 in1019.0 mb 0.01 in0.3 mm 0.00 in0.0 mm 0.13 in3.3 mm
11:40 AM 85.5°F29.7°C 77.5°F25.3°C 77% Calm Calm -- 30.09 in1019.0 mb 0.01 in0.3 mm 0.00 in0.0 mm 0.13 in3.3 mm
11:35 AM 85.4°F29.7°C 77.8°F25.4°C 78% Calm Calm -- 30.09 in1019.0 mb 0.01 in0.3 mm 0.00 in0.0 mm 0.13 in3.3 mm
11:30 AM 85.5°F29.7°C 77.9°F25.5°C 78% 1.0 mph NE1.6 kmh NE 2.0 mph3.2 kmh 30.10 in1019.3 mb 0.01 in0.3 mm 0.00 in0.0 mm 0.13 in3.3 mm
11:25 AM 85.7°F29.8°C 77.7°F25.4°C 77% Calm Calm 1.0 mph1.6 kmh 30.10 in1019.3 mb 0.01 in0.3 mm 0.00 in0.0 mm 0.13 in3.3 mm
11:20 AM 85.9°F29.9°C 77.5°F25.3°C 76% Calm Calm -- 30.10 in1019.3 mb 0.01 in0.3 mm 0.00 in0.0 mm 0.13 in3.3 mm
11:15 AM 86.1°F30.1°C 77.7°F25.4°C 76% 2.0 mph SW3.2 kmh SW 2.0 mph3.2 kmh 30.09 in1019.0 mb 0.01 in0.3 mm 0.00 in0.0 mm 0.13 in3.3 mm
11:10 AM 86.4°F30.2°C 77.5°F25.3°C 75% 2.0 mph SSE3.2 kmh SSE 2.0 mph3.2 kmh 30.09 in1019.0 mb 0.01 in0.3 mm 0.00 in0.0 mm 0.13 in3.3 mm
11:05 AM 86.5°F30.3°C 78.8°F26.0°C 78% 1.0 mph SSE1.6 kmh SSE 1.0 mph1.6 kmh 30.09 in1019.0 mb 0.01 in0.3 mm 0.00 in0.0 mm 0.13 in3.3 mm
11:00 AM 86.4°F30.2°C 77.9°F25.5°C 76% Calm Calm 1.0 mph1.6 kmh 30.09 in1019.0 mb 0.01 in0.3 mm 0.00 in0.0 mm 0.13 in3.3 mm
10:55 AM 86.2°F30.1°C 78.9°F26.1°C 79% Calm Calm -- 30.09 in1019.0 mb 0.01 in0.3 mm 0.00 in0.0 mm 0.13 in3.3 mm
10:50 AM 85.7°F29.8°C 78.8°F26.0°C 80% Calm Calm -- 30.09 in1019.0 mb 0.01 in0.3 mm 0.00 in0.0 mm 0.13 in3.3 mm
10:45 AM 85.3°F29.6°C 78.8°F26.0°C 81% Calm Calm -- 30.08 in1018.6 mb 0.01 in0.3 mm 0.12 in3.0 mm 0.13 in3.3 mm
10:40 AM 84.3°F29.1°C 78.2°F25.7°C 82% Calm Calm -- 30.09 in1019.0 mb 0.00 in0.0 mm 0.00 in0.0 mm 0.12 in3.0 mm
10:35 AM 83.8°F28.8°C 78.8°F26.0°C 85% Calm Calm -- 30.08 in1018.6 mb 0.00 in0.0 mm 0.00 in0.0 mm 0.12 in3.0 mm
10:30 AM 83.1°F28.4°C 79.2°F26.2°C 88% Calm Calm -- 30.08 in1018.6 mb 0.00 in0.0 mm 0.00 in0.0 mm 0.12 in3.0 mm
10:25 AM 82.3°F27.9°C 78.4°F25.8°C 88% Calm Calm -- 30.09 in1019.0 mb 0.00 in0.0 mm 0.00 in0.0 mm 0.12 in3.0 mm
10:20 AM 81.5°F27.5°C 78.0°F25.6°C 89% Calm Calm -- 30.08 in1018.6 mb 0.00 in0.0 mm 0.00 in0.0 mm 0.12 in3.0 mm
10:15 AM 81.2°F27.3°C 77.3°F25.2°C 88% Calm Calm -- 30.08 in1018.6 mb 0.00 in0.0 mm 0.00 in0.0 mm 0.12 in3.0 mm
10:10 AM 81.0°F27.2°C 77.5°F25.3°C 89% Calm Calm -- 30.09 in1019.0 mb 0.00 in0.0 mm 0.00 in0.0 mm 0.12 in3.0 mm
10:05 AM 80.7°F27.1°C 77.5°F25.3°C 90% Calm Calm -- 30.09 in1019.0 mb 0.00 in0.0 mm 0.00 in0.0 mm 0.12 in3.0 mm
10:00 AM 80.4°F26.9°C 77.9°F25.5°C 92% Calm Calm -- 30.09 in1019.0 mb 0.00 in0.0 mm 0.00 in0.0 mm 0.12 in3.0 mm
09:55 AM 80.0°F26.7°C 77.5°F25.3°C 92% Calm Calm -- 30.09 in1019.0 mb 0.00 in0.0 mm 0.00 in0.0 mm 0.12 in3.0 mm
09:50 AM 79.6°F26.4°C 77.1°F25.1°C 92% Calm Calm -- 30.09 in1019.0 mb 0.00 in0.0 mm 0.00 in0.0 mm 0.12 in3.0 mm
09:45 AM 79.3°F26.3°C 77.1°F25.1°C 93% Calm Calm 1.0 mph1.6 kmh 30.09 in1019.0 mb 0.00 in0.0 mm 0.00 in0.0 mm 0.12 in3.0 mm
09:40 AM 79.1°F26.2°C 76.6°F24.8°C 92% Calm Calm -- 30.09 in1019.0 mb 0.00 in0.0 mm 0.00 in0.0 mm 0.12 in3.0 mm
09:35 AM 79.1°F26.2°C 76.3°F24.6°C 91% 5.0 mph SE8.0 kmh SE 5.0 mph8.0 kmh 30.09 in1019.0 mb 0.00 in0.0 mm 0.00 in0.0 mm 0.12 in3.0 mm
09:30 AM 79.1°F26.2°C 76.9°F24.9°C 93% 4.0 mph SE6.4 kmh SE 4.0 mph6.4 kmh 30.09 in1019.0 mb 0.00 in0.0 mm 0.00 in0.0 mm 0.12 in3.0 mm
09:25 AM 78.9°F26.1°C 77.4°F25.2°C 95% Calm Calm -- 30.08 in1018.6 mb 0.00 in0.0 mm 0.00 in0.0 mm 0.12 in3.0 mm
09:20 AM 78.7°F25.9°C 77.2°F25.1°C 95% Calm Calm -- 30.08 in1018.6 mb 0.00 in0.0 mm 0.00 in0.0 mm 0.12 in3.0 mm
09:15 AM 78.7°F25.9°C 77.2°F25.1°C 95% Calm Calm -- 30.08 in1018.6 mb 0.00 in0.0 mm 0.00 in0.0 mm 0.12 in3.0 mm
09:10 AM 78.6°F25.9°C 77.4°F25.2°C 96% Calm Calm -- 30.08 in1018.6 mb 0.00 in0.0 mm 0.00 in0.0 mm 0.12 in3.0 mm
09:05 AM 78.3°F25.7°C 77.1°F25.1°C 96% Calm Calm -- 30.09 in1019.0 mb 0.00 in0.0 mm 0.00 in0.0 mm 0.12 in3.0 mm
09:00 AM 77.9°F25.5°C 76.7°F24.8°C 96% Calm Calm -- 30.08 in1018.6 mb 0.00 in0.0 mm 0.00 in0.0 mm 0.12 in3.0 mm
08:55 AM 77.7°F25.4°C 76.2°F24.6°C 95% Calm Calm -- 30.08 in1018.6 mb 0.00 in0.0 mm 0.00 in0.0 mm 0.12 in3.0 mm
08:50 AM 77.7°F25.4°C 76.2°F24.6°C 95% Calm Calm -- 30.07 in1018.3 mb 0.00 in0.0 mm 0.00 in0.0 mm 0.12 in3.0 mm
08:45 AM 77.7°F25.4°C 76.2°F24.6°C 95% Calm Calm -- 30.07 in1018.3 mb 0.01 in0.3 mm 0.00 in0.0 mm 0.12 in3.0 mm
08:40 AM 77.9°F25.5°C 76.4°F24.7°C 95% Calm Calm -- 30.07 in1018.3 mb 0.02 in0.5 mm 0.00 in0.0 mm 0.12 in3.0 mm
08:35 AM 77.9°F25.5°C 76.7°F24.8°C 96% Calm Calm -- 30.08 in1018.6 mb 0.12 in3.0 mm 0.00 in0.0 mm 0.12 in3.0 mm
08:30 AM 77.9°F25.5°C 76.7°F24.8°C 96% Calm Calm -- 30.07 in1018.3 mb 0.12 in3.0 mm 0.00 in0.0 mm 0.12 in3.0 mm
08:25 AM 77.8°F25.4°C 76.6°F24.8°C 96% Calm Calm -- 30.07 in1018.3 mb 0.12 in3.0 mm 0.00 in0.0 mm 0.12 in3.0 mm
08:20 AM 77.7°F25.4°C 76.2°F24.6°C 95% Calm Calm -- 30.07 in1018.3 mb 0.12 in3.0 mm 0.00 in0.0 mm 0.12 in3.0 mm
08:15 AM 77.7°F25.4°C 76.2°F24.6°C 95% Calm Calm 1.0 mph1.6 kmh 30.07 in1018.3 mb 0.12 in3.0 mm 0.00 in0.0 mm 0.12 in3.0 mm
08:10 AM 77.6°F25.3°C 76.1°F24.5°C 95% Calm Calm -- 30.07 in1018.3 mb 0.12 in3.0 mm 0.00 in0.0 mm 0.12 in3.0 mm
08:05 AM 77.7°F25.4°C 76.2°F24.6°C 95% Calm Calm -- 30.07 in1018.3 mb 0.12 in3.0 mm 0.00 in0.0 mm 0.12 in3.0 mm
08:00 AM 77.7°F25.4°C 75.8°F24.3°C 94% Calm Calm -- 30.06 in1017.9 mb 0.12 in3.0 mm 0.00 in0.0 mm 0.12 in3.0 mm
07:55 AM 77.7°F25.4°C 75.8°F24.3°C 94% Calm Calm -- 30.07 in1018.3 mb 0.12 in3.0 mm 0.00 in0.0 mm 0.12 in3.0 mm
07:50 AM 77.7°F25.4°C 75.8°F24.3°C 94% Calm Calm -- 30.07 in1018.3 mb 0.12 in3.0 mm 0.00 in0.0 mm 0.12 in3.0 mm
07:45 AM 78.0°F25.6°C 76.5°F24.7°C 95% Calm Calm -- 30.06 in1017.9 mb 0.12 in3.0 mm 0.12 in3.0 mm 0.12 in3.0 mm
07:40 AM 78.0°F25.6°C 76.5°F24.7°C 95% Calm Calm 3.0 mph4.8 kmh 30.06 in1017.9 mb 0.11 in2.8 mm 0.12 in3.0 mm 0.11 in2.8 mm
07:35 AM 77.9°F25.5°C 76.4°F24.7°C 95% 1.0 mph SE1.6 kmh SE 1.0 mph1.6 kmh 30.06 in1017.9 mb 0.10 in2.5 mm 1.20 in30.5 mm 0.10 in2.5 mm
07:30 AM 77.9°F25.5°C 76.0°F24.4°C 94% Calm Calm -- 30.06 in1017.9 mb 0.00 in0.0 mm 0.00 in0.0 mm 0.00 in0.0 mm
07:25 AM 77.9°F25.5°C 76.4°F24.7°C 95% Calm Calm -- 30.05 in1017.6 mb 0.00 in0.0 mm 0.00 in0.0 mm 0.00 in0.0 mm
07:20 AM 78.0°F25.6°C 76.5°F24.7°C 95% Calm Calm -- 30.05 in1017.6 mb 0.00 in0.0 mm 0.00 in0.0 mm 0.00 in0.0 mm
07:15 AM 78.0°F25.6°C 76.5°F24.7°C 95% 2.0 mph N3.2 kmh N 4.0 mph6.4 kmh 30.05 in1017.6 mb 0.00 in0.0 mm 0.00 in0.0 mm 0.00 in0.0 mm
07:10 AM 77.9°F25.5°C 76.4°F24.7°C 95% 1.0 mph N1.6 kmh N 1.0 mph1.6 kmh 30.05 in1017.6 mb 0.00 in0.0 mm 0.00 in0.0 mm 0.00 in0.0 mm
07:05 AM 77.8°F25.4°C 76.3°F24.6°C 95% 3.0 mph N4.8 kmh N 4.0 mph6.4 kmh 30.05 in1017.6 mb 0.00 in0.0 mm 0.00 in0.0 mm 0.00 in0.0 mm
07:00 AM 77.8°F25.4°C 76.3°F24.6°C 95% 1.0 mph NNE1.6 kmh NNE 1.0 mph1.6 kmh 30.05 in1017.6 mb 0.00 in0.0 mm 0.00 in0.0 mm 0.00 in0.0 mm
06:55 AM 77.8°F25.4°C 76.3°F24.6°C 95% Calm Calm -- 30.05 in1017.6 mb 0.00 in0.0 mm 0.00 in0.0 mm 0.00 in0.0 mm
06:50 AM 77.8°F25.4°C 76.3°F24.6°C 95% Calm Calm -- 30.05 in1017.6 mb 0.00 in0.0 mm 0.00 in0.0 mm 0.00 in0.0 mm
06:45 AM 77.8°F25.4°C 76.3°F24.6°C 95% Calm Calm -- 30.05 in1017.6 mb 0.00 in0.0 mm 0.00 in0.0 mm 0.00 in0.0 mm
06:40 AM 77.8°F25.4°C 76.3°F24.6°C 95% Calm Calm -- 30.05 in1017.6 mb 0.00 in0.0 mm 0.00 in0.0 mm 0.00 in0.0 mm
06:35 AM 77.7°F25.4°C 76.2°F24.6°C 95% Calm Calm -- 30.04 in1017.3 mb 0.00 in0.0 mm 0.00 in0.0 mm 0.00 in0.0 mm
06:30 AM 77.8°F25.4°C 76.3°F24.6°C 95% Calm Calm -- 30.04 in1017.3 mb 0.00 in0.0 mm 0.00 in0.0 mm 0.00 in0.0 mm
06:25 AM 77.7°F25.4°C 76.2°F24.6°C 95% Calm Calm -- 30.04 in1017.3 mb 0.00 in0.0 mm 0.00 in0.0 mm 0.00 in0.0 mm
06:20 AM 77.7°F25.4°C 76.2°F24.6°C 95% Calm Calm -- 30.04 in1017.3 mb 0.00 in0.0 mm 0.00 in0.0 mm 0.00 in0.0 mm
06:15 AM 77.7°F25.4°C 76.2°F24.6°C 95% Calm Calm -- 30.04 in1017.3 mb 0.00 in0.0 mm 0.00 in0.0 mm 0.00 in0.0 mm
06:10 AM 77.8°F25.4°C 76.3°F24.6°C 95% Calm Calm -- 30.03 in1016.9 mb 0.00 in0.0 mm 0.00 in0.0 mm 0.00 in0.0 mm
06:05 AM 77.7°F25.4°C 76.2°F24.6°C 95% Calm Calm -- 30.04 in1017.3 mb 0.00 in0.0 mm 0.00 in0.0 mm 0.00 in0.0 mm
06:00 AM 77.7°F25.4°C 76.2°F24.6°C 95% Calm Calm -- 30.04 in1017.3 mb 0.00 in0.0 mm 0.00 in0.0 mm 0.00 in0.0 mm
05:55 AM 77.6°F25.3°C 76.1°F24.5°C 95% Calm Calm -- 30.04 in1017.3 mb 0.00 in0.0 mm 0.00 in0.0 mm 0.00 in0.0 mm
05:45 AM 77.6°F25.3°C 75.7°F24.3°C 94% Calm Calm -- 30.03 in1016.9 mb 0.00 in0.0 mm 0.00 in0.0 mm 0.00 in0.0 mm
05:40 AM 77.6°F25.3°C 75.7°F24.3°C 94% Calm Calm -- 30.03 in1016.9 mb 0.00 in0.0 mm 0.00 in0.0 mm 0.00 in0.0 mm
05:35 AM 77.7°F25.4°C 75.8°F24.3°C 94% Calm Calm -- 30.02 in1016.6 mb 0.00 in0.0 mm 0.00 in0.0 mm 0.00 in0.0 mm
05:30 AM 77.7°F25.4°C 75.8°F24.3°C 94% Calm Calm -- 30.02 in1016.6 mb 0.00 in0.0 mm 0.00 in0.0 mm 0.00 in0.0 mm
05:25 AM 77.8°F25.4°C 75.9°F24.4°C 94% Calm Calm -- 30.02 in1016.6 mb 0.00 in0.0 mm 0.00 in0.0 mm 0.00 in0.0 mm
05:20 AM 77.8°F25.4°C 75.9°F24.4°C 94% Calm Calm -- 30.02 in1016.6 mb 0.00 in0.0 mm 0.00 in0.0 mm 0.00 in0.0 mm
05:15 AM 77.8°F25.4°C 75.9°F24.4°C 94% Calm Calm -- 30.02 in1016.6 mb 0.00 in0.0 mm 0.00 in0.0 mm 0.00 in0.0 mm
05:10 AM 77.8°F25.4°C 75.9°F24.4°C 94% Calm Calm -- 30.02 in1016.6 mb 0.00 in0.0 mm 0.00 in0.0 mm 0.00 in0.0 mm
05:05 AM 77.8°F25.4°C 75.9°F24.4°C 94% Calm Calm -- 30.02 in1016.6 mb 0.00 in0.0 mm 0.00 in0.0 mm 0.00 in0.0 mm
05:00 AM 77.8°F25.4°C 75.9°F24.4°C 94% Calm Calm -- 30.02 in1016.6 mb 0.00 in0.0 mm 0.00 in0.0 mm 0.00 in0.0 mm
04:55 AM 77.9°F25.5°C 76.0°F24.4°C 94% Calm Calm -- 30.03 in1016.9 mb 0.00 in0.0 mm 0.00 in0.0 mm 0.00 in0.0 mm
04:50 AM 77.9°F25.5°C 75.7°F24.3°C 93% Calm Calm -- 30.02 in1016.6 mb 0.00 in0.0 mm 0.00 in0.0 mm 0.00 in0.0 mm
04:45 AM 77.9°F25.5°C 75.7°F24.3°C 93% Calm Calm -- 30.02 in1016.6 mb 0.00 in0.0 mm 0.00 in0.0 mm 0.00 in0.0 mm
04:40 AM 78.0°F25.6°C 75.8°F24.3°C 93% Calm Calm -- 30.02 in1016.6 mb 0.00 in0.0 mm 0.00 in0.0 mm 0.00 in0.0 mm
04:35 AM 78.0°F25.6°C 75.8°F24.3°C 93% Calm Calm -- 30.02 in1016.6 mb 0.00 in0.0 mm 0.00 in0.0 mm 0.00 in0.0 mm
04:30 AM 78.0°F25.6°C 75.8°F24.3°C 93% Calm Calm -- 30.02 in1016.6 mb 0.00 in0.0 mm 0.00 in0.0 mm 0.00 in0.0 mm
04:25 AM 78.1°F25.6°C 75.9°F24.4°C 93% Calm Calm -- 30.02 in1016.6 mb 0.00 in0.0 mm 0.00 in0.0 mm 0.00 in0.0 mm
04:20 AM 78.1°F25.6°C 75.9°F24.4°C 93% Calm Calm -- 30.03 in1016.9 mb 0.00 in0.0 mm 0.00 in0.0 mm 0.00 in0.0 mm
04:15 AM 78.2°F25.7°C 76.0°F24.4°C 93% Calm Calm -- 30.03 in1016.9 mb 0.00 in0.0 mm 0.00 in0.0 mm 0.00 in0.0 mm
04:10 AM 78.2°F25.7°C 76.0°F24.4°C 93% Calm Calm -- 30.03 in1016.9 mb 0.00 in0.0 mm 0.00 in0.0 mm 0.00 in0.0 mm
04:05 AM 78.2°F25.7°C 75.7°F24.3°C 92% Calm Calm -- 30.03 in1016.9 mb 0.00 in0.0 mm 0.00 in0.0 mm 0.00 in0.0 mm
04:00 AM 78.3°F25.7°C 75.8°F24.3°C 92% Calm Calm -- 30.03 in1016.9 mb 0.00 in0.0 mm 0.00 in0.0 mm 0.00 in0.0 mm
03:55 AM 78.3°F25.7°C 75.8°F24.3°C 92% Calm Calm 1.0 mph1.6 kmh 30.03 in1016.9 mb 0.00 in0.0 mm 0.00 in0.0 mm 0.00 in0.0 mm
03:50 AM 78.4°F25.8°C 75.9°F24.4°C 92% Calm Calm -- 30.03 in1016.9 mb 0.00 in0.0 mm 0.00 in0.0 mm 0.00 in0.0 mm
03:45 AM 78.4°F25.8°C 75.9°F24.4°C 92% Calm Calm -- 30.03 in1016.9 mb 0.00 in0.0 mm 0.00 in0.0 mm 0.00 in0.0 mm
03:40 AM 78.4°F25.8°C 75.9°F24.4°C 92% Calm Calm -- 30.03 in1016.9 mb 0.00 in0.0 mm 0.00 in0.0 mm 0.00 in0.0 mm
03:35 AM 78.4°F25.8°C 75.9°F24.4°C 92% Calm Calm -- 30.03 in1016.9 mb 0.00 in0.0 mm 0.00 in0.0 mm 0.00 in0.0 mm
03:30 AM 78.4°F25.8°C 75.6°F24.2°C 91% Calm Calm -- 30.03 in1016.9 mb 0.00 in0.0 mm 0.00 in0.0 mm 0.00 in0.0 mm
03:25 AM 78.5°F25.8°C 76.0°F24.4°C 92% Calm Calm -- 30.03 in1016.9 mb 0.00 in0.0 mm 0.00 in0.0 mm 0.00 in0.0 mm
03:20 AM 78.5°F25.8°C 75.7°F24.3°C 91% Calm Calm -- 30.03 in1016.9 mb 0.00 in0.0 mm 0.00 in0.0 mm 0.00 in0.0 mm
03:15 AM 78.5°F25.8°C 75.7°F24.3°C 91% Calm Calm -- 30.03 in1016.9 mb 0.00 in0.0 mm 0.00 in0.0 mm 0.00 in0.0 mm
03:10 AM 78.6°F25.9°C 75.8°F24.3°C 91% Calm Calm -- 30.04 in1017.3 mb 0.00 in0.0 mm 0.00 in0.0 mm 0.00 in0.0 mm
03:05 AM 78.6°F25.9°C 75.8°F24.3°C 91% Calm Calm -- 30.04 in1017.3 mb 0.00 in0.0 mm 0.00 in0.0 mm 0.00 in0.0 mm
03:00 AM 78.7°F25.9°C 75.9°F24.4°C 91% Calm Calm -- 30.04 in1017.3 mb 0.00 in0.0 mm 0.00 in0.0 mm 0.00 in0.0 mm
02:55 AM 78.8°F26.0°C 76.0°F24.4°C 91% Calm Calm -- 30.03 in1016.9 mb 0.00 in0.0 mm 0.00 in0.0 mm 0.00 in0.0 mm
02:50 AM 78.8°F26.0°C 76.0°F24.4°C 91% Calm Calm -- 30.03 in1016.9 mb 0.00 in0.0 mm 0.00 in0.0 mm 0.00 in0.0 mm
02:47 AM 78.8°F26.0°C 76.0°F24.4°C 91% Calm Calm -- 30.03 in1016.9 mb 0.00 in0.0 mm 0.00 in0.0 mm 0.00 in0.0 mm
02:20 AM 79.0°F26.1°C 75.8°F24.3°C 90% Calm Calm -- 30.04 in1017.3 mb 0.00 in0.0 mm 0.00 in0.0 mm 0.00 in0.0 mm
02:15 AM 79.0°F26.1°C 75.5°F24.2°C 89% Calm Calm -- 30.04 in1017.3 mb 0.00 in0.0 mm 0.00 in0.0 mm 0.00 in0.0 mm
02:10 AM 79.1°F26.2°C 75.9°F24.4°C 90% Calm Calm -- 30.04 in1017.3 mb 0.00 in0.0 mm 0.00 in0.0 mm 0.00 in0.0 mm
02:05 AM 79.1°F26.2°C 75.9°F24.4°C 90% Calm Calm -- 30.05 in1017.6 mb 0.00 in0.0 mm 0.00 in0.0 mm 0.00 in0.0 mm
02:00 AM 79.1°F26.2°C 75.9°F24.4°C 90% Calm Calm -- 30.05 in1017.6 mb 0.00 in0.0 mm 0.00 in0.0 mm 0.00 in0.0 mm
01:55 AM 79.1°F26.2°C 75.9°F24.4°C 90% Calm Calm -- 30.05 in1017.6 mb 0.00 in0.0 mm 0.00 in0.0 mm 0.00 in0.0 mm
01:50 AM 79.2°F26.2°C 75.7°F24.3°C 89% Calm Calm -- 30.05 in1017.6 mb 0.00 in0.0 mm 0.00 in0.0 mm 0.00 in0.0 mm
01:45 AM 79.2°F26.2°C 75.7°F24.3°C 89% Calm Calm -- 30.05 in1017.6 mb 0.00 in0.0 mm 0.00 in0.0 mm 0.00 in0.0 mm
01:40 AM 79.2°F26.2°C 75.7°F24.3°C 89% Calm Calm -- 30.05 in1017.6 mb 0.00 in0.0 mm 0.00 in0.0 mm 0.00 in0.0 mm
01:35 AM 79.3°F26.3°C 75.8°F24.3°C 89% Calm Calm -- 30.05 in1017.6 mb 0.00 in0.0 mm 0.00 in0.0 mm 0.00 in0.0 mm
01:30 AM 79.3°F26.3°C 75.8°F24.3°C 89% Calm Calm -- 30.05 in1017.6 mb 0.00 in0.0 mm 0.00 in0.0 mm 0.00 in0.0 mm
01:25 AM 79.3°F26.3°C 75.4°F24.1°C 88% Calm Calm -- 30.05 in1017.6 mb 0.00 in0.0 mm 0.00 in0.0 mm 0.00 in0.0 mm
01:20 AM 79.4°F26.3°C 75.5°F24.2°C 88% Calm Calm -- 30.06 in1017.9 mb 0.00 in0.0 mm 0.00 in0.0 mm 0.00 in0.0 mm
01:15 AM 79.5°F26.4°C 75.6°F24.2°C 88% Calm Calm -- 30.06 in1017.9 mb 0.00 in0.0 mm 0.00 in0.0 mm 0.00 in0.0 mm
01:10 AM 79.6°F26.4°C 75.7°F24.3°C 88% Calm Calm -- 30.06 in1017.9 mb 0.00 in0.0 mm 0.00 in0.0 mm 0.00 in0.0 mm
01:05 AM 79.6°F26.4°C 75.7°F24.3°C 88% Calm Calm -- 30.06 in1017.9 mb 0.00 in0.0 mm 0.00 in0.0 mm 0.00 in0.0 mm
01:00 AM 79.6°F26.4°C 75.7°F24.3°C 88% Calm Calm -- 30.06 in1017.9 mb 0.00 in0.0 mm 0.00 in0.0 mm 0.00 in0.0 mm
12:55 AM 79.7°F26.5°C 75.8°F24.3°C 88% Calm Calm -- 30.06 in1017.9 mb 0.00 in0.0 mm 0.00 in0.0 mm 0.00 in0.0 mm
12:50 AM 79.7°F26.5°C 75.8°F24.3°C 88% Calm Calm -- 30.06 in1017.9 mb 0.00 in0.0 mm 0.00 in0.0 mm 0.00 in0.0 mm
12:45 AM 79.8°F26.6°C 75.9°F24.4°C 88% Calm Calm -- 30.06 in1017.9 mb 0.00 in0.0 mm 0.00 in0.0 mm 0.00 in0.0 mm
12:40 AM 79.8°F26.6°C 75.9°F24.4°C 88% Calm Calm -- 30.07 in1018.3 mb 0.00 in0.0 mm 0.00 in0.0 mm 0.00 in0.0 mm
12:35 AM 79.9°F26.6°C 76.0°F24.4°C 88% Calm Calm -- 30.07 in1018.3 mb 0.00 in0.0 mm 0.00 in0.0 mm 0.00 in0.0 mm
12:30 AM 79.9°F26.6°C 76.0°F24.4°C 88% Calm Calm -- 30.07 in1018.3 mb 0.00 in0.0 mm 0.00 in0.0 mm 0.00 in0.0 mm
12:25 AM 80.0°F26.7°C 76.1°F24.5°C 88% Calm Calm -- 30.07 in1018.3 mb 0.00 in0.0 mm 0.00 in0.0 mm 0.00 in0.0 mm
12:20 AM 80.0°F26.7°C 76.1°F24.5°C 88% Calm Calm -- 30.07 in1018.3 mb 0.00 in0.0 mm 0.00 in0.0 mm 0.00 in0.0 mm
12:15 AM 80.1°F26.7°C 76.2°F24.6°C 88% Calm Calm -- 30.07 in1018.3 mb 0.00 in0.0 mm 0.00 in0.0 mm 0.00 in0.0 mm
12:10 AM 80.2°F26.8°C 76.3°F24.6°C 88% Calm Calm -- 30.07 in1018.3 mb 0.00 in0.0 mm 0.00 in0.0 mm 0.00 in0.0 mm
12:05 AM 80.2°F26.8°C 76.3°F24.6°C 88% Calm Calm -- 30.08 in1018.6 mb 0.00 in0.0 mm 0.00 in0.0 mm 0.00 in0.0 mm
12:04 AM 80.2°F26.8°C 76.3°F24.6°C 88% Calm Calm -- 30.08 in1018.6 mb 0.00 in0.0 mm 0.00 in0.0 mm 0.00 in0.0 mm